This is the latest recevied weather packets stored in our database for station/object W6ORV. If no packets are shown the sender has not sent any weather packets the latest 1 day(s).
| Time | Temp. | Humidity | Pressure | Rain* | Wind** | Luminosity | Snow |
|---|---|---|---|---|---|---|---|
| 1778100010 | 27.78° C | 41% | 4302.5 hPa | 0 mm | - | 735 W/m² | - |
| 1778097585 | 25.56° C | 43% | 4302.9 hPa | 0 mm | - | 784 W/m² | - |
| 1778096373 | 25° C | 44% | 4303 hPa | 0 mm | - | 787 W/m² | - |
| 1778094554 | 25° C | 46% | 4303.6 hPa | 0 mm | - | 769 W/m² | - |
| 1778090310 | 21.11° C | 56% | 4303.9 hPa | 0 mm | - | 721 W/m² | - |
| 1778089704 | 21.67° C | 59% | 4303.9 hPa | 0 mm | - | 693 W/m² | - |
| 1778088189 | 20° C | 59% | 4304.2 hPa | 0 mm | - | 813 W/m² | - |
| 1778086977 | 18.33° C | 66% | 4304.2 hPa | 0 mm | - | 750 W/m² | - |
| 1778086676 | 20° C | 63% | 4304.1 hPa | 0 mm | - | 719 W/m² | - |
| 1778086373 | 20° C | 63% | 4304.3 hPa | 0 mm | - | 696 W/m² | - |
| 1778085158 | 16.11° C | 76% | 4304.5 hPa | 0 mm | - | 615 W/m² | - |
| 1778083644 | 13.89° C | 82% | 4304.6 hPa | 0 mm | - | 476 W/m² | - |
| 1778082736 | 12.78° C | 88% | 4304.6 hPa | 0 mm | - | 353 W/m² | - |
| 1778080387 | 10.56° C | 98% | 4304.9 hPa | 0 mm | - | 238 W/m² | - |
| 1778079174 | 10° C | 99% | 4304.7 hPa | 0 mm | - | 174 W/m² | - |
| 1778078266 | 9.44° C | 99% | 4304.9 hPa | 0 mm | - | 113 W/m² | - |
| 1778077963 | 8.89° C | 99% | 4304.8 hPa | 0 mm | - | 101 W/m² | - |
| 1778075846 | 7.78° C | 99% | 4304.6 hPa | 0 mm | - | 50 W/m² | - |
| 1778075542 | 7.78° C | 99% | 4304.5 hPa | 0 mm | - | 36 W/m² | - |
| 1778075239 | 7.78° C | 99% | 4304.5 hPa | 0 mm | - | 36 W/m² | - |
| 1778074935 | 7.78° C | 99% | 4304.5 hPa | 0 mm | - | 29 W/m² | - |
| 1778072814 | 7.78° C | 99% | 4304.2 hPa | 0 mm | - | 2 W/m² | - |
| 1778071907 | 8.33° C | 99% | 4304.3 hPa | 0 mm | - | 0 W/m² | - |
| 1778071302 | 8.33° C | 99% | 4304 hPa | 0 mm | - | 0 W/m² | - |
| 1778069486 | 8.33° C | 99% | 4303.7 hPa | 0 mm | - | 0 W/m² | - |
* Rain latest hour (hover to see other rain measurements)
** Current wind speed in m/s (hover to see current wind gust speed)